createdAt,value
2023-02-22T00:00:43.007Z,5.04
2023-02-22T00:03:32.439Z,5.09
2023-02-22T00:06:04.191Z,5.14
2023-02-22T00:08:36.455Z,5.18
2023-02-22T00:11:08.411Z,5.20
2023-02-22T00:13:35.740Z,5.15
2023-02-22T00:16:02.904Z,5.09
2023-02-22T00:18:29.997Z,5.14
2023-02-22T00:21:00.035Z,5.42
2023-02-22T00:23:29.669Z,5.59
2023-02-22T00:25:58.226Z,5.76
2023-02-22T00:28:25.483Z,5.90
2023-02-22T00:30:54.704Z,5.99
2023-02-22T00:33:21.408Z,6.11
2023-02-22T00:35:48.091Z,6.20
2023-02-22T00:38:18.476Z,6.28
2023-02-22T00:40:45.560Z,6.36
2023-02-22T00:43:12.488Z,6.44
2023-02-22T00:45:39.179Z,6.50
2023-02-22T00:48:07.109Z,6.60
2023-02-22T00:50:33.916Z,6.64
2023-02-22T00:53:03.768Z,6.67
2023-02-22T00:55:33.144Z,6.71
2023-02-22T00:58:02.175Z,6.80
2023-02-22T01:00:31.570Z,6.85
2023-02-22T01:03:00.404Z,6.90
2023-02-22T01:05:29.825Z,6.91
2023-02-22T01:07:58.248Z,6.93
2023-02-22T01:10:27.290Z,6.97
2023-02-22T01:12:55.023Z,6.99
2023-02-22T01:15:24.085Z,7.03
2023-02-22T01:17:53.702Z,7.04
2023-02-22T01:20:22.823Z,7.05
2023-02-22T01:22:51.592Z,7.06
2023-02-22T01:25:21.080Z,7.04
2023-02-22T01:27:50.251Z,7.04
2023-02-22T01:30:21.393Z,7.03
2023-02-22T01:32:48.114Z,7.06
2023-02-22T01:35:18.652Z,7.08
2023-02-22T01:37:45.683Z,7.10
2023-02-22T01:40:23.456Z,7.10
2023-02-22T01:42:55.360Z,7.10
2023-02-22T01:45:31.013Z,7.09
2023-02-22T01:48:04.358Z,7.02
2023-02-22T01:50:34.812Z,7.01
2023-02-22T01:53:03.304Z,6.98
2023-02-22T01:55:31.995Z,6.96
2023-02-22T01:57:58.656Z,6.91
2023-02-22T02:00:27.645Z,6.88
2023-02-22T02:03:06.503Z,6.84
2023-02-22T02:05:36.742Z,6.86
2023-02-22T02:08:14.917Z,6.83
2023-02-22T02:10:42.805Z,6.81
2023-02-22T02:13:10.179Z,6.80
2023-02-22T02:15:37.219Z,6.75
2023-02-22T02:18:07.341Z,6.74
2023-02-22T02:20:49.257Z,6.70
2023-02-22T02:23:36.752Z,6.71
2023-02-22T02:26:09.361Z,6.70
2023-02-22T02:29:01.958Z,6.68
2023-02-22T02:31:46.948Z,6.71
2023-02-22T02:34:20.381Z,6.71
2023-02-22T02:37:15.013Z,6.78
2023-02-22T02:39:53.141Z,6.81
2023-02-22T02:42:25.196Z,6.84
2023-02-22T02:45:08.729Z,6.84
2023-02-22T02:47:40.709Z,6.93
2023-02-22T02:50:18.311Z,6.94
2023-02-22T02:52:46.544Z,7.02
2023-02-22T02:55:14.409Z,7.05
2023-02-22T02:57:40.997Z,7.06
2023-02-22T03:00:24.212Z,7.04
2023-02-22T03:03:18.665Z,7.04
2023-02-22T03:05:52.594Z,7.04
2023-02-22T03:08:24.570Z,7.04
2023-02-22T03:11:15.292Z,7.03
2023-02-22T03:14:11.302Z,7.04
2023-02-22T03:16:59.228Z,7.00
2023-02-22T03:19:45.896Z,7.08
2023-02-22T03:22:26.175Z,7.08
2023-02-22T03:24:59.057Z,7.06
2023-02-22T03:27:37.161Z,7.06
2023-02-22T03:30:20.164Z,7.03
2023-02-22T03:32:52.820Z,7.04
2023-02-22T03:35:24.071Z,7.02
2023-02-22T03:37:56.751Z,6.98
2023-02-22T03:40:29.078Z,6.99
2023-02-22T03:43:02.187Z,6.96
2023-02-22T03:45:32.488Z,6.97
2023-02-22T03:48:14.543Z,6.99
2023-02-22T03:50:41.399Z,6.98
2023-02-22T03:53:09.619Z,7.05
2023-02-22T03:55:36.198Z,7.06
2023-02-22T03:58:09.423Z,7.05
2023-02-22T04:00:36.137Z,7.07
2023-02-22T04:03:03.289Z,7.07
2023-02-22T04:05:30.148Z,7.04
2023-02-22T04:07:57.536Z,7.03
2023-02-22T04:10:24.934Z,6.99
2023-02-22T04:12:51.521Z,7.04
2023-02-22T04:15:21.663Z,7.05
2023-02-22T04:17:48.345Z,7.06
2023-02-22T04:20:19.947Z,7.03
2023-02-22T04:22:47.446Z,7.06
2023-02-22T04:25:14.540Z,7.07
2023-02-22T04:27:41.517Z,7.12
2023-02-22T04:30:08.947Z,7.16
2023-02-22T04:32:35.536Z,7.21
2023-02-22T04:35:02.602Z,7.25
2023-02-22T04:37:29.185Z,7.28
2023-02-22T04:39:55.757Z,7.32
2023-02-22T04:42:23.641Z,7.34
2023-02-22T04:44:50.171Z,7.34
2023-02-22T04:47:16.720Z,7.38
2023-02-22T04:49:44.074Z,7.46
2023-02-22T04:52:10.656Z,7.50
2023-02-22T04:54:37.548Z,7.49
2023-02-22T04:57:04.198Z,7.52
2023-02-22T04:59:30.788Z,7.58
2023-02-22T05:01:58.095Z,7.68
2023-02-22T05:04:24.678Z,7.74
2023-02-22T05:06:52.744Z,7.79
2023-02-22T05:09:21.236Z,7.82
2023-02-22T05:11:48.065Z,7.86
2023-02-22T05:14:14.665Z,7.91
2023-02-22T05:16:41.422Z,7.93
2023-02-22T05:19:08.470Z,7.99
2023-02-22T05:21:35.040Z,8.03
2023-02-22T05:24:01.705Z,8.07
2023-02-22T05:26:28.270Z,8.10
2023-02-22T05:28:54.849Z,8.11
2023-02-22T05:31:21.510Z,8.12
2023-02-22T05:33:48.495Z,8.16
2023-02-22T05:36:16.782Z,8.19
2023-02-22T05:38:44.817Z,8.23
2023-02-22T05:41:12.434Z,8.28
2023-02-22T05:43:40.323Z,8.35
2023-02-22T05:46:07.539Z,8.36
2023-02-22T05:48:34.528Z,8.38
2023-02-22T05:51:01.171Z,8.37
2023-02-22T05:53:27.968Z,8.31
2023-02-22T05:55:54.614Z,8.27
2023-02-22T05:58:22.037Z,8.15
2023-02-22T06:00:48.754Z,8.09
2023-02-22T06:03:15.733Z,8.04
2023-02-22T06:05:42.577Z,8.02
2023-02-22T06:08:09.292Z,8.00
2023-02-22T06:10:36.113Z,7.98
2023-02-22T06:13:03.438Z,7.97
2023-02-22T06:15:30.461Z,7.93
2023-02-22T06:17:58.806Z,7.93
2023-02-22T06:20:27.361Z,7.99
2023-02-22T06:22:56.424Z,8.02
2023-02-22T06:25:25.698Z,8.08
2023-02-22T06:27:52.338Z,8.16
2023-02-22T06:30:21.754Z,8.25
2023-02-22T06:32:48.374Z,8.37
2023-02-22T06:35:15.963Z,8.46
2023-02-22T06:37:42.613Z,8.57
2023-02-22T06:40:11.246Z,8.68
2023-02-22T06:42:39.233Z,8.78
2023-02-22T06:45:06.201Z,8.91
2023-02-22T06:47:32.778Z,9.03
2023-02-22T06:50:00.977Z,9.13
2023-02-22T06:52:27.727Z,9.24
2023-02-22T06:54:54.312Z,9.36
2023-02-22T06:57:20.934Z,9.46
2023-02-22T06:59:47.516Z,9.54
2023-02-22T07:02:14.599Z,9.64
2023-02-22T07:04:43.420Z,9.76
2023-02-22T07:07:10.758Z,9.89
2023-02-22T07:09:37.473Z,10.11
2023-02-22T07:12:04.308Z,10.35
2023-02-22T07:14:30.846Z,10.47
2023-02-22T07:16:57.429Z,10.48
2023-02-22T07:19:24.851Z,10.46
2023-02-22T07:21:57.000Z,10.35
2023-02-22T07:24:23.565Z,10.36
2023-02-22T07:26:50.127Z,10.39
2023-02-22T07:29:16.719Z,10.32
2023-02-22T07:31:43.303Z,10.34
2023-02-22T07:34:09.855Z,10.38
2023-02-22T07:36:36.429Z,10.43
2023-02-22T07:39:03.020Z,10.41
2023-02-22T07:41:29.649Z,10.37
2023-02-22T07:43:56.205Z,10.31
2023-02-22T07:46:22.743Z,10.36
2023-02-22T07:48:49.355Z,10.38
2023-02-22T07:51:17.811Z,10.40
2023-02-22T07:53:44.509Z,10.44
2023-02-22T07:56:11.032Z,10.52
2023-02-22T07:58:37.679Z,10.59
2023-02-22T08:01:04.828Z,10.59
2023-02-22T08:03:38.066Z,10.62
2023-02-22T08:06:07.109Z,10.69
2023-02-22T08:08:34.532Z,10.79
2023-02-22T08:11:01.354Z,10.86
2023-02-22T08:13:28.228Z,10.97
2023-02-22T08:15:54.950Z,11.04
2023-02-22T08:18:22.790Z,11.14
2023-02-22T08:20:51.956Z,11.24
2023-02-22T08:23:20.337Z,11.33
2023-02-22T08:25:47.004Z,11.43
2023-02-22T08:28:16.051Z,11.54
2023-02-22T08:30:46.307Z,11.66
2023-02-22T08:33:16.790Z,11.84
2023-02-22T08:35:43.557Z,12.05
2023-02-22T08:38:17.870Z,12.27
2023-02-22T08:40:44.778Z,12.49
2023-02-22T08:43:13.456Z,12.76
2023-02-22T08:45:40.902Z,13.05
2023-02-22T08:48:07.799Z,13.36
2023-02-22T08:50:35.599Z,13.67
2023-02-22T08:53:04.322Z,13.92
2023-02-22T08:55:33.682Z,14.09
2023-02-22T08:58:02.952Z,14.30
2023-02-22T09:00:33.131Z,14.55
2023-02-22T09:03:01.328Z,14.84
2023-02-22T09:05:29.768Z,14.99
2023-02-22T09:07:57.492Z,15.02
2023-02-22T09:10:27.031Z,14.98
2023-02-22T09:12:57.116Z,14.74
2023-02-22T09:15:27.291Z,14.50
2023-02-22T09:17:54.448Z,14.33
2023-02-22T09:20:22.740Z,14.05
2023-02-22T09:22:50.044Z,13.89
2023-02-22T09:25:18.148Z,13.86
2023-02-22T09:27:48.019Z,13.91
2023-02-22T09:30:25.586Z,14.03
2023-02-22T09:32:58.057Z,14.08
2023-02-22T09:35:27.262Z,14.08
2023-02-22T09:37:59.214Z,14.02
2023-02-22T09:40:30.187Z,13.76
2023-02-22T09:43:05.166Z,13.50
2023-02-22T09:45:45.136Z,13.32
2023-02-22T09:48:21.701Z,13.21
2023-02-22T09:50:51.349Z,13.06
2023-02-22T09:53:36.180Z,13.10
2023-02-22T09:56:11.108Z,13.28
2023-02-22T09:58:45.882Z,13.44
2023-02-22T10:01:43.464Z,13.48
2023-02-22T10:04:20.028Z,13.62
2023-02-22T10:07:11.597Z,13.77
2023-02-22T10:09:44.596Z,13.94
2023-02-22T10:12:14.029Z,14.18
2023-02-22T10:14:51.768Z,14.45
2023-02-22T10:17:39.429Z,14.48
2023-02-22T10:20:28.828Z,14.29
2023-02-22T10:23:22.977Z,13.95
2023-02-22T10:25:57.428Z,13.65
2023-02-22T10:28:27.767Z,13.60
2023-02-22T10:31:02.629Z,13.68
2023-02-22T10:33:46.307Z,13.73
2023-02-22T10:36:20.082Z,13.78
2023-02-22T10:38:58.102Z,13.80
2023-02-22T10:41:34.291Z,13.74
2023-02-22T10:44:03.056Z,13.71
2023-02-22T10:46:31.968Z,13.59
2023-02-22T10:49:04.798Z,13.60
2023-02-22T10:51:32.869Z,13.64
2023-02-22T10:54:08.823Z,13.59
2023-02-22T10:56:35.582Z,13.59
2023-02-22T10:59:06.064Z,13.49
2023-02-22T11:01:32.663Z,13.38
2023-02-22T11:04:09.716Z,13.43
2023-02-22T11:06:37.475Z,13.51
2023-02-22T11:09:19.248Z,13.53
2023-02-22T11:11:47.824Z,13.53
2023-02-22T11:14:27.445Z,13.48
2023-02-22T11:16:56.968Z,13.39
2023-02-22T11:19:31.954Z,13.24
2023-02-22T11:22:32.864Z,13.15
2023-02-22T11:25:04.292Z,13.25
2023-02-22T11:27:33.840Z,13.41
2023-02-22T11:30:32.043Z,13.55
2023-02-22T11:33:16.920Z,13.69
2023-02-22T11:35:53.715Z,13.89
2023-02-22T11:38:24.290Z,13.96
2023-02-22T11:41:14.637Z,13.97
2023-02-22T11:43:46.271Z,13.98
2023-02-22T11:46:21.618Z,14.00
2023-02-22T11:49:10.131Z,14.17
2023-02-22T11:51:59.727Z,14.43
2023-02-22T11:55:09.875Z,14.68
2023-02-22T11:57:51.559Z,14.82
2023-02-22T12:00:39.760Z,14.84
2023-02-22T12:03:18.214Z,14.75
2023-02-22T12:05:59.914Z,14.69
2023-02-22T12:08:29.534Z,14.70
2023-02-22T12:11:10.124Z,14.60
2023-02-22T12:13:45.486Z,14.52
2023-02-22T12:16:25.133Z,14.52
2023-02-22T12:19:16.587Z,14.46
2023-02-22T12:21:46.875Z,14.28
2023-02-22T12:24:23.953Z,14.22
2023-02-22T12:27:12.182Z,14.13
2023-02-22T12:29:48.523Z,14.04
2023-02-22T12:32:24.778Z,14.01
2023-02-22T12:35:25.869Z,13.85
2023-02-22T12:37:56.180Z,13.73
2023-02-22T12:40:58.091Z,13.54
2023-02-22T12:43:34.206Z,13.42
2023-02-22T12:46:10.525Z,13.41
2023-02-22T12:48:54.220Z,13.39
2023-02-22T12:51:43.288Z,13.37
2023-02-22T12:54:26.549Z,13.33
2023-02-22T12:57:00.789Z,13.26
2023-02-22T12:59:39.117Z,13.25
2023-02-22T13:02:23.908Z,13.24
2023-02-22T13:04:50.707Z,13.25
2023-02-22T13:07:23.202Z,13.26
2023-02-22T13:10:19.246Z,13.30
2023-02-22T13:13:03.901Z,13.20
2023-02-22T13:15:52.345Z,13.16
2023-02-22T13:18:50.543Z,13.17
2023-02-22T13:21:55.556Z,13.23
2023-02-22T13:24:39.233Z,13.25
2023-02-22T13:27:17.361Z,13.16
2023-02-22T13:29:52.196Z,13.10
2023-02-22T13:32:45.455Z,13.11
2023-02-22T13:35:24.140Z,13.05
2023-02-22T13:38:13.691Z,12.95
2023-02-22T13:41:34.201Z,12.87
2023-02-22T13:44:14.955Z,12.88
2023-02-22T13:47:07.152Z,12.83
2023-02-22T13:50:15.281Z,12.81
2023-02-22T13:52:43.306Z,12.85
2023-02-22T13:55:20.505Z,12.87
2023-02-22T13:57:51.668Z,12.84
2023-02-22T14:00:24.326Z,12.75
2023-02-22T14:03:10.561Z,12.62
2023-02-22T14:05:43.421Z,12.58
2023-02-22T14:08:19.215Z,12.56
2023-02-22T14:10:52.196Z,12.57
2023-02-22T14:13:22.526Z,12.49
2023-02-22T14:15:59.915Z,12.48
2023-02-22T14:18:30.754Z,12.43
2023-02-22T14:21:20.999Z,12.41
2023-02-22T14:23:56.010Z,12.43
2023-02-22T14:26:37.420Z,12.36
2023-02-22T14:29:09.817Z,12.31
2023-02-22T14:31:45.024Z,12.31
2023-02-22T14:34:15.331Z,12.29
2023-02-22T14:36:47.964Z,12.29
2023-02-22T14:39:29.416Z,12.30
2023-02-22T14:42:02.345Z,12.34
2023-02-22T14:44:39.706Z,12.41
2023-02-22T14:47:14.095Z,12.46
2023-02-22T14:49:49.036Z,12.46
2023-02-22T14:52:24.877Z,12.47
2023-02-22T14:54:59.679Z,12.48
2023-02-22T14:57:48.427Z,12.47
2023-02-22T15:00:30.625Z,12.45
2023-02-22T15:02:59.609Z,12.43
2023-02-22T15:05:30.107Z,12.42
2023-02-22T15:08:02.676Z,12.42
2023-02-22T15:10:42.786Z,12.43
2023-02-22T15:13:15.489Z,12.45
2023-02-22T15:15:54.686Z,12.43
2023-02-22T15:18:27.262Z,12.42
2023-02-22T15:20:58.500Z,12.41
2023-02-22T15:23:30.388Z,12.43
2023-02-22T15:25:58.056Z,12.42
2023-02-22T15:28:28.967Z,12.39
2023-02-22T15:31:25.153Z,12.35
2023-02-22T15:33:53.574Z,12.29
2023-02-22T15:36:25.435Z,12.26
2023-02-22T15:38:55.823Z,12.24
2023-02-22T15:41:32.455Z,12.24
2023-02-22T15:44:14.104Z,12.24
2023-02-22T15:46:49.336Z,12.23
2023-02-22T15:49:15.838Z,12.25
2023-02-22T15:51:46.456Z,12.27
2023-02-22T15:54:26.528Z,12.26
2023-02-22T15:56:56.810Z,12.22
2023-02-22T15:59:30.401Z,12.13
2023-02-22T16:01:58.948Z,12.06
2023-02-22T16:04:30.171Z,12.03
2023-02-22T16:07:08.124Z,11.96
2023-02-22T16:09:34.842Z,11.93
2023-02-22T16:12:10.928Z,11.91
2023-02-22T16:14:40.413Z,11.90
2023-02-22T16:17:30.863Z,11.88
2023-02-22T16:20:00.171Z,11.86
2023-02-22T16:22:34.932Z,11.83
2023-02-22T16:25:18.245Z,11.76
2023-02-22T16:27:57.480Z,11.71
2023-02-22T16:30:28.420Z,11.72
2023-02-22T16:32:57.083Z,11.69
2023-02-22T16:35:30.844Z,11.67
2023-02-22T16:38:00.766Z,11.62
2023-02-22T16:40:34.557Z,11.57
2023-02-22T16:43:04.620Z,11.55
2023-02-22T16:45:31.330Z,11.53
2023-02-22T16:47:59.258Z,11.50
2023-02-22T16:50:25.997Z,11.49
2023-02-22T16:52:55.737Z,11.47
2023-02-22T16:55:22.716Z,11.47
2023-02-22T16:57:50.173Z,11.43
2023-02-22T17:00:31.079Z,11.37
2023-02-22T17:03:03.955Z,11.35
2023-02-22T17:05:31.513Z,11.32
2023-02-22T17:07:58.104Z,11.30
2023-02-22T17:10:26.167Z,11.28
2023-02-22T17:12:56.225Z,11.26
2023-02-22T17:15:25.596Z,11.21
2023-02-22T17:17:53.111Z,11.18
2023-02-22T17:20:31.665Z,11.15
2023-02-22T17:23:08.501Z,11.14
2023-02-22T17:25:42.210Z,11.10
2023-02-22T17:28:09.637Z,11.04
2023-02-22T17:30:36.791Z,11.03
2023-02-22T17:33:06.768Z,11.03
2023-02-22T17:35:37.310Z,10.97
2023-02-22T17:38:06.350Z,10.92
2023-02-22T17:40:35.959Z,10.84
2023-02-22T17:43:03.004Z,10.78
2023-02-22T17:45:30.315Z,10.76
2023-02-22T17:47:59.187Z,10.76
2023-02-22T17:50:26.684Z,10.73
2023-02-22T17:52:54.774Z,10.69
2023-02-22T17:55:22.003Z,10.67
2023-02-22T17:57:56.840Z,10.62
2023-02-22T18:00:24.409Z,10.56
2023-02-22T18:02:51.782Z,10.55
2023-02-22T18:05:19.143Z,10.53
2023-02-22T18:07:46.437Z,10.43
2023-02-22T18:10:13.503Z,10.38
2023-02-22T18:12:41.072Z,10.38
2023-02-22T18:15:10.899Z,10.34
2023-02-22T18:17:38.035Z,10.28
2023-02-22T18:20:11.678Z,10.27
2023-02-22T18:22:43.423Z,10.20
2023-02-22T18:25:15.788Z,10.17
2023-02-22T18:27:43.341Z,10.13
2023-02-22T18:30:12.065Z,10.04
2023-02-22T18:32:39.712Z,9.98
2023-02-22T18:35:07.152Z,9.93
2023-02-22T18:37:34.054Z,9.94
2023-02-22T18:40:00.803Z,9.93
2023-02-22T18:42:28.263Z,9.89
2023-02-22T18:45:00.668Z,9.83
2023-02-22T18:47:27.535Z,9.70
2023-02-22T18:49:54.242Z,9.63
2023-02-22T18:52:21.109Z,9.60
2023-02-22T18:54:49.060Z,9.59
2023-02-22T18:57:16.973Z,9.61
2023-02-22T18:59:43.916Z,9.62
2023-02-22T19:02:15.361Z,9.62
2023-02-22T19:04:44.101Z,9.61
2023-02-22T19:07:10.723Z,9.59
2023-02-22T19:09:37.440Z,9.58
2023-02-22T19:12:04.233Z,9.52
2023-02-22T19:14:30.844Z,9.49
2023-02-22T19:17:01.457Z,9.45
2023-02-22T19:19:28.528Z,9.43
2023-02-22T19:21:56.336Z,9.42
2023-02-22T19:24:23.120Z,9.37
2023-02-22T19:26:57.348Z,9.38
2023-02-22T19:29:24.056Z,9.36
2023-02-22T19:31:51.938Z,9.37
2023-02-22T19:34:21.833Z,9.36
2023-02-22T19:36:48.953Z,9.34
2023-02-22T19:39:17.639Z,9.32
2023-02-22T19:41:44.518Z,9.34
2023-02-22T19:44:12.261Z,9.30
2023-02-22T19:46:39.873Z,9.27
2023-02-22T19:49:07.281Z,9.29
2023-02-22T19:51:34.427Z,9.29
2023-02-22T19:54:03.835Z,9.26
2023-02-22T19:56:31.557Z,9.28
2023-02-22T19:59:02.457Z,9.27
2023-02-22T20:01:33.202Z,9.26
2023-02-22T20:04:03.740Z,9.23
2023-02-22T20:06:41.970Z,9.21
2023-02-22T20:09:12.924Z,9.21
2023-02-22T20:11:39.961Z,9.19
2023-02-22T20:14:06.651Z,9.20
2023-02-22T20:16:34.249Z,9.20
2023-02-22T20:19:01.509Z,9.15
2023-02-22T20:21:33.020Z,9.15
2023-02-22T20:24:01.662Z,9.12
2023-02-22T20:26:30.882Z,9.09
2023-02-22T20:28:58.751Z,9.10
2023-02-22T20:31:25.769Z,9.09
2023-02-22T20:33:55.473Z,9.10
2023-02-22T20:36:22.330Z,9.05
2023-02-22T20:38:52.900Z,9.04
2023-02-22T20:41:26.189Z,9.02
2023-02-22T20:43:55.222Z,9.00
2023-02-22T20:46:23.671Z,9.02
2023-02-22T20:48:55.395Z,9.01
2023-02-22T20:51:22.221Z,9.00
2023-02-22T20:53:48.997Z,9.00
2023-02-22T20:56:21.842Z,9.01
2023-02-22T20:58:48.716Z,9.02
2023-02-22T21:01:17.264Z,8.98
2023-02-22T21:03:44.150Z,8.97
2023-02-22T21:06:15.283Z,8.96
2023-02-22T21:08:49.213Z,8.96
2023-02-22T21:11:17.920Z,8.96
2023-02-22T21:13:44.801Z,8.93
2023-02-22T21:16:18.662Z,8.93
2023-02-22T21:18:45.438Z,8.91
2023-02-22T21:21:12.636Z,8.90
2023-02-22T21:23:42.276Z,8.88
2023-02-22T21:26:16.629Z,8.88
2023-02-22T21:28:51.414Z,8.88
2023-02-22T21:31:20.496Z,8.87
2023-02-22T21:33:50.544Z,8.88
2023-02-22T21:36:17.560Z,8.87
2023-02-22T21:38:46.782Z,8.86
2023-02-22T21:41:15.988Z,8.84
2023-02-22T21:43:43.974Z,8.84
2023-02-22T21:46:11.047Z,8.84
2023-02-22T21:48:48.322Z,8.84
2023-02-22T21:51:25.553Z,8.84
2023-02-22T21:53:54.929Z,8.83
2023-02-22T21:56:24.401Z,8.82
2023-02-22T21:59:02.929Z,8.83
2023-02-22T22:01:33.321Z,8.82
2023-02-22T22:04:01.730Z,8.79
2023-02-22T22:06:30.633Z,8.80
2023-02-22T22:08:59.817Z,8.78
2023-02-22T22:11:26.543Z,8.79
2023-02-22T22:13:57.636Z,8.77
2023-02-22T22:16:27.109Z,8.77
2023-02-22T22:18:55.030Z,8.74
2023-02-22T22:21:24.216Z,8.76
2023-02-22T22:23:54.380Z,8.75
2023-02-22T22:26:22.061Z,8.70
2023-02-22T22:28:51.947Z,8.69
2023-02-22T22:31:20.895Z,8.64
2023-02-22T22:33:47.759Z,8.63
2023-02-22T22:36:16.941Z,8.64
2023-02-22T22:38:47.065Z,8.63
2023-02-22T22:41:15.341Z,8.63
2023-02-22T22:43:46.626Z,8.63
2023-02-22T22:46:15.172Z,8.62
2023-02-22T22:48:42.373Z,8.60
2023-02-22T22:51:11.819Z,8.59
2023-02-22T22:53:40.703Z,8.59
2023-02-22T22:56:19.514Z,8.58
2023-02-22T22:58:55.068Z,8.59
2023-02-22T23:01:27.324Z,8.58
2023-02-22T23:04:05.897Z,8.57
2023-02-22T23:06:35.719Z,8.57
2023-02-22T23:09:11.932Z,8.59
2023-02-22T23:11:45.175Z,8.58
2023-02-22T23:14:19.571Z,8.56
2023-02-22T23:16:50.918Z,8.56
2023-02-22T23:19:19.423Z,8.53
2023-02-22T23:21:49.952Z,8.49
2023-02-22T23:24:19.511Z,8.46
2023-02-22T23:26:49.797Z,8.43
2023-02-22T23:29:22.272Z,8.39
2023-02-22T23:31:50.441Z,8.40
2023-02-22T23:34:18.217Z,8.41
2023-02-22T23:36:44.834Z,8.39
2023-02-22T23:39:12.762Z,8.41
2023-02-22T23:41:39.300Z,8.37
2023-02-22T23:44:08.451Z,8.35
2023-02-22T23:46:36.501Z,8.33
2023-02-22T23:49:05.357Z,8.33
2023-02-22T23:51:39.448Z,8.32
2023-02-22T23:54:12.572Z,8.31
2023-02-22T23:56:40.448Z,8.32
2023-02-22T23:59:10.972Z,8.32
